Flight Track Log - Related Links

Times and Time Zones

All times are in EDT time to prevent confusion due to time zone crossing. See the N496ER flight status page for this flight to view local times or setup timezone preferences in your user account.

Time Position Orientation Groundspeed Altitude Reporting Facility
EDT Latitude Longitude Course Direction KTS MPH feet Rate Location/Type
Tue 11:50:14 AM 43.7219 -90.0453 325° Northwest 122 140 4,400  Level Chicago Center
Tue 11:51:16 AM 43.7503 -90.0731 325° Northwest 125 144 4,400  Level Chicago Center
Tue 11:52:18 AM 43.7747 -90.1028 319° Northwest 120 138 4,400 194 Level Chicago Center
Tue 11:53:20 AM 43.8072 -90.1353 324° Northwest 120 138 4,800 488 Climbing Chicago Center
Tue 11:54:21 AM 43.8275 -90.1619 317° Northwest 107 123 5,400 537 Climbing Chicago Center
Tue 11:55:23 AM 43.8508 -90.1842 326° Northwest 103 119 5,900 330 Climbing Chicago Center
Tue 11:57:23 AM 43.9000 -90.2331 324° Northwest 113 130 6,400 132 Climbing Minneapolis Center
Tue 11:58:25 AM 43.9242 -90.2603 321° Northwest 115 132 6,300 -48 Descending Minneapolis Center
Tue 11:59:27 AM 43.9464 -90.2894 317° Northwest 105 121 6,300 -194 Level Minneapolis Center
Tue 12:00:29 PM 43.9708 -90.3217 317° Northwest 117 135 5,900 -390 Descending Minneapolis Center
Tue 12:01:30 PM 43.9961 -90.3547 317° Northwest 118 136 5,500 -439 Descending Minneapolis Center
Tue 12:02:32 PM 44.0228 -90.3878 318° Northwest 122 140 5,000 -435 Descending Minneapolis Center
Tue 12:03:34 PM 44.0503 -90.4236 317° Northwest 128 147 4,600 -290 Descending Minneapolis Center
Tue 12:04:36 PM 44.0822 -90.4467 333° Northwest 137 158 4,400 -146 Descending Minneapolis Center
Tue 12:05:37 PM 44.1175 -90.4681 336° Northwest 133 153 4,300 -49 Descending Minneapolis Center
Tue 12:06:39 PM 44.1483 -90.4928 330° Northwest 124 143 4,300 48 Level Minneapolis Center
Tue 12:07:41 PM 44.1761 -90.5214 324° Northwest 120 138 4,400 97 Climbing Minneapolis Center
Tue 12:08:43 PM 44.2028 -90.5478 325° Northwest 114 131 4,500 97 Climbing Minneapolis Center
Tue 12:09:45 PM 44.2264 -90.5767 319° Northwest 115 132 4,600 98 Climbing Minneapolis Center
Tue 12:10:46 PM 44.2528 -90.6094 318° Northwest 120 138 4,700 -49 Climbing Minneapolis Center
Tue 12:11:48 PM 44.2775 -90.6453 314° West 122 140 4,500 -97 Descending Minneapolis Center
Tue 12:12:50 PM 44.3033 -90.6797 316° Northwest 123 142 4,500  Level Minneapolis Center
Tue 12:13:52 PM 44.3292 -90.7133 317° Northwest 121 139 4,500  Level Minneapolis Center
Tue 12:14:54 PM 44.3517 -90.7461 314° West 121 139 4,500 48 Level Minneapolis Center
Tue 12:15:56 PM 44.3764 -90.7808 315° West 121 139 4,600 49 Climbing Minneapolis Center
Tue 12:16:57 PM 44.4022 -90.8158 316° Northwest 123 142 4,600  Level Minneapolis Center
Tue 12:17:59 PM 44.4275 -90.8506 316° Northwest 122 140 4,600  Level Minneapolis Center
Tue 12:19:01 PM 44.4531 -90.8853 316° Northwest 122 140 4,600 -97 Level Minneapolis Center
Tue 12:20:03 PM 44.4761 -90.9167 316° Northwest 121 139 4,400 -97 Descending Minneapolis Center
Tue 12:21:05 PM 44.5000 -90.9531 313° West 122 140 4,400 48 Level Minneapolis Center
Tue 12:22:07 PM 44.5197 -90.9889 308° West 114 131 4,500 49 Climbing Minneapolis Center
Tue 12:23:08 PM 44.5425 -91.0231 313° West 113 130 4,500  Level Minneapolis Center
Tue 12:24:10 PM 44.5644 -91.0603 310° West 117 135 4,500 -48 Level Minneapolis Center
Tue 12:25:12 PM 44.5844 -91.0964 308° West 115 132 4,400  Descending Minneapolis Center
Tue 12:26:14 PM 44.6083 -91.1264 318° Northwest 117 135 4,500  Climbing Minneapolis Center
Tue 12:27:16 PM 44.6336 -91.1594 317° Northwest 119 137 4,400 -49 Descending Minneapolis Center
Tue 12:28:17 PM 44.6589 -91.1939 316° Northwest 121 139 4,400 98 Level Minneapolis Center
Tue 12:29:19 PM 44.6858 -91.2267 319° Northwest 122 140 4,600 194 Climbing Minneapolis Center

Login

Don't have an account? Register now (free) for customized features, flight alerts, and more!